Startpagina
METAR-TAF:

METAR-TAF

Vliegvelden :

Yap, Micronesië

breedte: 09-29N, lengte: 138-05E, hoogte: 28 m

Actueel weer

Dit bericht is 4 uur en het 16 minuten geleden gemaakt, om 14:52 UTC
Wind 4 kt uit variabele richting
Temperatuur 26°C
Vochtigheid 94%
Druk 1010 hPa
Zicht: 19.3 km
Weinig wolken op 1600 ft
Verspreide wolken op 13000 ft
Gebroken wolken op 30000 ft

METAR: PTYA 201452Z VRB04KT 12SM FEW016 SCT130 BKN300 26/25 A2983 RMK SLP103 8/171 T02610251 403020247 57003

Tijdstip: 05:08 (19:08 UTC)

Verwachting

Dit bericht is 7 uur en het 30 minuten geleden gemaakt, om 11:38 UTC
Verwachting geldig van 20 om 12 UTC tot 21 om 12 UTC
Wind 5 kt uit variabele richting
Zicht: 10 km
Weinig wolken op 1600 ft

TAF: PTYA 201138Z 2012/2112 VRB05KT P6SM FEW016

Waarnemingen en weersverwachtingen van meer dan 4000 vliegvelden (METAR en TAF).

De beschikbare stations zijn de gele en rode punten op de kaart.

Ga met uw muis naar het station om de naam te zien.

Klik dan om waarnemingen en weersverwachtingen te zien.

kaart wijzigen: klik op de groene knoppen met een zwart kruis om in te zoomen, op de groene knop met een streepje om uit te zoomen of op de groene pijlen voor aangrenzende kaarten.


METAR-TAF: